Time;durP1;ratioP1;P1;durP2;ratioP2;P2;SDS_P1;SDS_P2;PMS_P1;PMS_P2;Temp;Humidity;BMP_temperature;BMP_pressure;BME280_temperature;BME280_humidity;BME280_pressure;Samples;Min_cycle;Max_cycle;Signal;HPM_P1;HPM_P2
2023/08/21 00:01:59;;;;;;;8.45;7.50;;;26.10;85.40;;;;;;5114994;28;20027;-71
2023/08/21 00:04:25;;;;;;;10.07;7.80;;;26.10;85.40;;;;;;5114695;28;20486;-71
2023/08/21 00:06:51;;;;;;;8.05;7.25;;;26.00;85.60;;;;;;5114969;28;20028;-71
2023/08/21 00:09:16;;;;;;;8.88;7.97;;;26.00;85.90;;;;;;5114733;28;20035;-71
2023/08/21 00:11:42;;;;;;;10.07;8.25;;;26.00;86.40;;;;;;5114851;28;20056;-70
2023/08/21 00:14:08;;;;;;;8.27;7.47;;;26.00;86.60;;;;;;5114686;28;20422;-71
2023/08/21 00:16:34;;;;;;;8.25;7.18;;;25.90;86.70;;;;;;5115275;28;20031;-71
2023/08/21 00:19:00;;;;;;;8.18;7.38;;;25.90;86.60;;;;;;5096787;28;20503;-71
2023/08/21 00:21:25;;;;;;;8.60;7.40;;;25.90;86.60;;;;;;5114576;28;20290;-71
2023/08/21 00:23:51;;;;;;;9.25;7.43;;;25.90;86.40;;;;;;5114883;28;20024;-70
2023/08/21 00:26:17;;;;;;;9.55;7.43;;;25.90;86.30;;;;;;5114337;28;20046;-71
2023/08/21 00:28:42;;;;;;;9.80;7.68;;;25.90;86.70;;;;;;5114457;28;20119;-70
2023/08/21 00:31:08;;;;;;;11.43;7.53;;;25.80;86.50;;;;;;5114108;28;20039;-71
2023/08/21 00:33:34;;;;;;;10.52;7.40;;;25.80;86.60;;;;;;5114801;28;20059;-70
2023/08/21 00:35:59;;;;;;;9.02;7.07;;;25.80;86.60;;;;;;5096293;28;20024;-71
2023/08/21 00:38:26;;;;;;;8.48;7.63;;;25.70;86.60;;;;;;5114195;28;20016;-71
2023/08/21 00:40:52;;;;;;;9.18;8.00;;;25.70;86.40;;;;;;5114526;28;20027;-71
2023/08/21 00:43:18;;;;;;;9.70;7.93;;;25.70;86.20;;;;;;5114125;28;20035;-71
2023/08/21 00:45:46;;;;;;;9.45;7.07;;;25.70;86.40;;;;;;5114423;28;20361;-70
2023/08/21 00:48:14;;;;;;;10.20;7.55;;;25.70;86.50;;;;;;5114086;28;20025;-71
2023/08/21 00:50:40;;;;;;;8.63;7.05;;;25.70;86.50;;;;;;5114511;28;20480;-71
2023/08/21 00:53:06;;;;;;;8.05;7.20;;;25.60;86.60;;;;;;5114306;28;20034;-71
2023/08/21 00:55:33;;;;;;;7.53;6.90;;;25.60;86.80;;;;;;5095663;28;20118;-71
2023/08/21 00:57:59;;;;;;;8.15;6.97;;;25.60;86.50;;;;;;5123380;27;20011;-71
2023/08/21 01:00:27;;;;;;;7.53;6.80;;;25.60;86.20;;;;;;5133649;27;20432;-71
2023/08/21 01:02:52;;;;;;;12.95;7.10;;;25.60;86.50;;;;;;5134693;27;20031;-71
2023/08/21 01:05:22;;;;;;;8.18;7.38;;;25.60;86.30;;;;;;5134116;27;20034;-71
2023/08/21 01:07:59;;;;;;;8.30;7.07;;;25.60;86.30;;;;;;5134302;27;20106;-70
2023/08/21 01:10:50;;;;;;;8.57;7.65;;;25.60;86.20;;;;;;5133924;27;20035;-71
2023/08/21 01:13:40;;;;;;;8.95;7.38;;;25.60;86.20;;;;;;5134085;27;20134;-71
2023/08/21 01:16:08;;;;;;;7.57;6.80;;;25.60;86.10;;;;;;5134217;27;20030;-71
2023/08/21 01:18:34;;;;;;;8.35;7.40;;;25.60;86.20;;;;;;5134235;27;20042;-71
2023/08/21 01:21:03;;;;;;;7.88;7.05;;;25.60;86.10;;;;;;5134517;27;20370;-71
2023/08/21 01:23:31;;;;;;;9.55;7.43;;;25.60;86.20;;;;;;5133619;27;20463;-71
2023/08/21 01:25:56;;;;;;;9.88;6.88;;;25.60;86.40;;;;;;5134264;27;20078;-71
2023/08/21 01:28:22;;;;;;;8.50;7.70;;;25.50;86.60;;;;;;5133491;27;20051;-72
2023/08/21 01:30:51;;;;;;;8.10;7.28;;;25.60;86.70;;;;;;5134119;27;20023;-71
2023/08/21 01:33:17;;;;;;;8.77;7.20;;;25.50;86.60;;;;;;5133490;27;20030;-72
2023/08/21 01:35:43;;;;;;;8.13;7.30;;;25.50;86.90;;;;;;5133636;27;20027;-72
2023/08/21 01:38:09;;;;;;;10.02;7.78;;;25.50;87.10;;;;;;5130627;27;20023;-71
2023/08/21 01:40:35;;;;;;;11.70;7.78;;;25.50;87.20;;;;;;5133581;27;20024;-71
2023/08/21 01:43:00;;;;;;;9.32;7.88;;;25.40;87.20;;;;;;5134400;27;20113;-71
2023/08/21 01:45:26;;;;;;;8.32;7.40;;;25.40;87.60;;;;;;5133805;27;20106;-71
2023/08/21 01:47:52;;;;;;;9.27;8.27;;;25.30;87.80;;;;;;5134192;27;20031;-70
2023/08/21 01:50:18;;;;;;;8.45;7.60;;;25.30;88.30;;;;;;5114838;28;20479;-71
2023/08/21 01:52:43;;;;;;;12.52;7.63;;;25.30;88.50;;;;;;5115166;27;20031;-71
2023/08/21 01:55:10;;;;;;;8.95;8.15;;;25.30;88.50;;;;;;5115518;28;20034;-70
2023/08/21 01:57:35;;;;;;;9.43;7.57;;;25.30;89.00;;;;;;5133385;27;20032;-71
2023/08/21 02:00:04;;;;;;;9.70;8.18;;;25.20;89.10;;;;;;5133896;28;20107;-71
2023/08/21 02:02:30;;;;;;;10.23;8.18;;;25.20;89.10;;;;;;5133288;28;20054;-71
2023/08/21 02:04:55;;;;;;;9.48;8.23;;;25.10;89.20;;;;;;5133549;28;20479;-71
2023/08/21 02:07:21;;;;;;;8.85;8.05;;;25.10;89.40;;;;;;5133068;28;20440;-71
2023/08/21 02:09:46;;;;;;;8.77;7.93;;;25.10;89.60;;;;;;5133759;28;20027;-71
2023/08/21 02:12:12;;;;;;;9.00;8.10;;;25.10;89.90;;;;;;5133744;28;20531;-71
2023/08/21 02:14:38;;;;;;;9.85;8.32;;;25.00;90.10;;;;;;5133291;28;20023;-71
2023/08/21 02:17:05;;;;;;;9.43;8.52;;;25.10;90.10;;;;;;5133712;28;20077;-71
2023/08/21 02:19:30;;;;;;;9.38;7.53;;;25.10;90.20;;;;;;5133182;28;20505;-71
2023/08/21 02:21:56;;;;;;;9.32;8.43;;;25.00;90.10;;;;;;5133680;28;20031;-71
2023/08/21 02:24:21;;;;;;;8.38;7.57;;;25.00;90.30;;;;;;5133138;28;20051;-71
2023/08/21 02:26:47;;;;;;;8.40;7.60;;;25.00;90.30;;;;;;5133541;28;20092;-71
2023/08/21 02:29:13;;;;;;;9.20;8.30;;;25.00;90.40;;;;;;5133644;28;20030;-71
2023/08/21 02:31:38;;;;;;;8.98;8.07;;;24.90;90.50;;;;;;5132864;28;20023;-71
2023/08/21 02:34:05;;;;;;;9.65;7.97;;;24.90;90.50;;;;;;5133462;28;20031;-71
2023/08/21 02:36:30;;;;;;;12.32;7.80;;;24.90;90.70;;;;;;5133096;28;20042;-71
2023/08/21 02:38:56;;;;;;;9.20;8.30;;;24.90;90.80;;;;;;5133545;28;20015;-71
2023/08/21 02:41:21;;;;;;;8.88;7.97;;;24.90;90.70;;;;;;5114643;28;20027;-71
2023/08/21 02:43:47;;;;;;;11.75;8.38;;;24.90;90.80;;;;;;5133456;28;20023;-71
2023/08/21 02:46:13;;;;;;;10.35;8.00;;;24.90;90.90;;;;;;5133599;27;20027;-71
2023/08/21 02:48:38;;;;;;;9.63;8.32;;;24.80;91.00;;;;;;5136619;27;20414;-71
2023/08/21 02:51:04;;;;;;;10.95;8.23;;;24.80;91.10;;;;;;5136971;27;20055;-70
2023/08/21 02:53:29;;;;;;;9.23;8.32;;;24.80;91.10;;;;;;5136809;27;20519;-70
2023/08/21 02:55:55;;;;;;;8.27;7.50;;;24.80;91.30;;;;;;5118732;27;20031;-70
2023/08/21 02:58:21;;;;;;;9.85;8.25;;;24.80;91.40;;;;;;5136444;27;20460;-70
2023/08/21 03:00:46;;;;;;;10.88;7.80;;;24.70;91.20;;;;;;5136704;27;20094;-70
2023/08/21 03:03:12;;;;;;;10.73;9.10;;;24.70;91.50;;;;;;5136661;27;20031;-70
2023/08/21 03:05:38;;;;;;;9.38;8.20;;;24.70;91.50;;;;;;5118044;27;20221;-70
2023/08/21 03:08:03;;;;;;;10.13;8.75;;;24.60;91.50;;;;;;5136937;27;20092;-71
2023/08/21 03:10:33;;;;;;;10.32;9.32;;;24.50;91.80;;;;;;5136414;27;20080;-72
2023/08/21 03:12:59;;;;;;;10.48;8.27;;;24.50;91.80;;;;;;5136750;27;20031;-71
2023/08/21 03:15:24;;;;;;;10.60;8.85;;;24.50;92.00;;;;;;5136371;27;20033;-71
2023/08/21 03:17:50;;;;;;;9.80;7.75;;;24.50;92.20;;;;;;5136608;27;20023;-71
2023/08/21 03:20:17;;;;;;;12.60;9.05;;;24.50;92.30;;;;;;5136391;27;20027;-69
2023/08/21 03:22:43;;;;;;;9.75;7.95;;;24.40;92.50;;;;;;5136173;27;20425;-71
2023/08/21 03:25:09;;;;;;;12.27;8.45;;;24.30;92.60;;;;;;5136699;27;20027;-70
2023/08/21 03:27:38;;;;;;;12.98;8.32;;;24.30;92.90;;;;;;5132845;27;20066;-71
2023/08/21 03:30:06;;;;;;;9.55;8.57;;;24.20;93.10;;;;;;5115589;27;20122;-71
2023/08/21 03:32:32;;;;;;;9.70;8.70;;;24.20;93.20;;;;;;5135932;27;20072;-70
2023/08/21 03:34:58;;;;;;;8.55;7.60;;;24.10;93.40;;;;;;5136383;27;20031;-70
2023/08/21 03:37:24;;;;;;;9.82;8.82;;;24.10;93.70;;;;;;5135995;27;20158;-71
2023/08/21 03:39:50;;;;;;;9.75;8.70;;;24.00;93.80;;;;;;5136298;27;20465;-71
2023/08/21 03:42:15;;;;;;;10.00;8.35;;;24.00;94.10;;;;;;5136286;27;20028;-71
2023/08/21 03:44:41;;;;;;;10.30;8.65;;;24.00;94.00;;;;;;5135404;27;20026;-71
2023/08/21 03:47:07;;;;;;;9.98;8.85;;;24.10;94.00;;;;;;5117825;27;20475;-71
2023/08/21 03:49:33;;;;;;;9.85;8.93;;;24.10;94.00;;;;;;5135387;27;20521;-71
2023/08/21 03:51:58;;;;;;;10.10;8.82;;;24.10;93.80;;;;;;5135795;27;20023;-70
2023/08/21 03:54:24;;;;;;;13.07;8.90;;;24.10;93.90;;;;;;5135280;27;20035;-71
2023/08/21 03:56:49;;;;;;;11.88;8.90;;;24.10;93.90;;;;;;5135567;27;20102;-71
2023/08/21 03:59:15;;;;;;;9.48;8.50;;;24.10;94.00;;;;;;5135538;27;20019;-71
2023/08/21 04:01:41;;;;;;;9.43;8.52;;;24.10;93.80;;;;;;5135478;27;20027;-71
2023/08/21 04:04:06;;;;;;;9.90;8.43;;;24.10;93.70;;;;;;5135878;27;20387;-71
2023/08/21 04:06:32;;;;;;;11.05;9.30;;;24.10;93.70;;;;;;5135321;27;20028;-71
2023/08/21 04:08:58;;;;;;;12.27;8.98;;;24.10;93.70;;;;;;5135632;27;20023;-71
2023/08/21 04:11:23;;;;;;;11.68;9.00;;;24.20;93.70;;;;;;5116987;27;20034;-72
2023/08/21 04:13:49;;;;;;;11.45;8.52;;;24.20;93.40;;;;;;5135645;27;20027;-70
2023/08/21 04:16:15;;;;;;;10.80;8.75;;;24.10;93.60;;;;;;5135663;27;20409;-71
2023/08/21 04:18:41;;;;;;;10.13;9.02;;;24.10;93.60;;;;;;5135220;27;20068;-71
2023/08/21 04:21:07;;;;;;;13.18;8.70;;;24.20;93.70;;;;;;5117294;27;20023;-71
2023/08/21 04:23:32;;;;;;;11.50;9.00;;;24.10;93.60;;;;;;5116737;27;20023;-71
2023/08/21 04:26:03;;;;;;;10.00;8.48;;;24.20;93.70;;;;;;5135481;27;20031;-71
2023/08/21 04:28:30;;;;;;;13.57;9.15;;;24.20;93.60;;;;;;5134948;27;20035;-71
2023/08/21 04:30:57;;;;;;;11.70;8.50;;;24.20;93.50;;;;;;5117001;27;20083;-71
2023/08/21 04:33:25;;;;;;;12.80;9.45;;;24.20;93.50;;;;;;5135259;27;20031;-70
2023/08/21 04:35:50;;;;;;;11.32;9.27;;;24.30;93.50;;;;;;5135240;27;20046;-71
2023/08/21 04:38:16;;;;;;;11.32;8.82;;;24.30;93.30;;;;;;5134837;27;20455;-71
2023/08/21 04:40:41;;;;;;;10.40;8.50;;;24.30;93.30;;;;;;5134397;27;20031;-71
2023/08/21 04:43:07;;;;;;;9.90;8.40;;;24.40;93.20;;;;;;5134969;27;20367;-71
2023/08/21 04:45:33;;;;;;;10.05;9.05;;;24.40;93.20;;;;;;5134360;27;20157;-71
2023/08/21 04:47:58;;;;;;;9.50;8.60;;;24.40;92.80;;;;;;5134577;27;20019;-71
2023/08/21 04:50:24;;;;;;;9.43;7.72;;;24.50;92.80;;;;;;5134840;27;20390;-71
2023/08/21 04:52:50;;;;;;;9.20;8.20;;;24.40;92.40;;;;;;5133981;27;20037;-71
2023/08/21 04:55:16;;;;;;;11.60;8.13;;;24.50;92.60;;;;;;5134699;27;20030;-71
2023/08/21 04:57:42;;;;;;;9.07;8.18;;;24.50;92.20;;;;;;5134356;27;20058;-71
2023/08/21 05:00:09;;;;;;;8.98;7.85;;;24.50;92.40;;;;;;5115893;27;20023;-71
2023/08/21 05:02:35;;;;;;;9.75;8.40;;;24.50;92.40;;;;;;5134082;27;20027;-71
2023/08/21 05:05:00;;;;;;;8.75;7.88;;;24.50;92.30;;;;;;5134975;27;20379;-71
2023/08/21 05:07:27;;;;;;;9.57;8.30;;;24.50;92.30;;;;;;5134616;27;20030;-71
2023/08/21 05:09:52;;;;;;;9.20;8.15;;;24.50;92.10;;;;;;5115362;27;20020;-71
2023/08/21 05:12:18;;;;;;;10.77;8.43;;;24.60;91.90;;;;;;5134185;27;20109;-71
2023/08/21 05:14:44;;;;;;;9.15;7.40;;;24.60;91.80;;;;;;5133999;27;20027;-71
2023/08/21 05:17:09;;;;;;;9.32;7.60;;;24.70;91.80;;;;;;5134100;27;20023;-71
2023/08/21 05:19:35;;;;;;;13.98;8.15;;;24.70;91.50;;;;;;5133677;27;20031;-71
2023/08/21 05:22:00;;;;;;;7.72;6.85;;;24.80;91.40;;;;;;5134464;27;20047;-71
2023/08/21 05:24:26;;;;;;;11.82;8.13;;;24.80;91.30;;;;;;5130432;27;20035;-71
2023/08/21 05:26:52;;;;;;;11.98;7.93;;;24.90;91.40;;;;;;5133826;27;20038;-70
2023/08/21 05:29:17;;;;;;;10.57;7.45;;;24.90;90.90;;;;;;5134287;27;20023;-70
2023/08/21 05:31:43;;;;;;;9.98;8.52;;;25.00;90.70;;;;;;5115109;27;20030;-70
2023/08/21 05:34:08;;;;;;;8.57;7.07;;;25.10;90.70;;;;;;5134316;27;20432;-70
2023/08/21 05:36:34;;;;;;;9.95;8.35;;;25.10;90.50;;;;;;5133630;27;20114;-71
2023/08/21 05:39:05;;;;;;;16.08;8.38;;;25.20;90.50;;;;;;5133743;27;20062;-70
2023/08/21 05:41:31;;;;;;;9.85;7.72;;;25.30;90.30;;;;;;5133541;27;20028;-71
2023/08/21 05:43:57;;;;;;;11.18;8.85;;;25.30;90.30;;;;;;5133808;27;20023;-70
2023/08/21 05:46:22;;;;;;;9.82;8.82;;;25.40;90.80;;;;;;5133703;27;20040;-70
2023/08/21 05:48:48;;;;;;;10.65;9.38;;;25.50;90.80;;;;;;5133016;27;20054;-70
2023/08/21 05:51:14;;;;;;;12.13;8.68;;;25.50;90.30;;;;;;5133637;27;20023;-70
2023/08/21 05:53:39;;;;;;;10.77;8.20;;;25.60;89.60;;;;;;5133343;27;20027;-71
2023/08/21 05:56:05;;;;;;;10.15;8.38;;;25.60;88.50;;;;;;5134065;27;20466;-70
2023/08/21 05:58:32;;;;;;;11.48;8.25;;;25.70;88.80;;;;;;5133470;27;20031;-70
2023/08/21 06:00:58;;;;;;;13.82;7.97;;;25.70;88.20;;;;;;5133548;28;20035;-71
2023/08/21 06:03:24;;;;;;;9.82;8.27;;;25.70;87.60;;;;;;5133407;28;20152;-71
2023/08/21 06:05:49;;;;;;;8.77;7.85;;;25.80;87.60;;;;;;5133066;28;20096;-71
2023/08/21 06:08:15;;;;;;;9.63;7.85;;;25.80;87.50;;;;;;5133380;28;20019;-71
2023/08/21 06:10:41;;;;;;;10.52;8.30;;;25.90;87.40;;;;;;5133235;28;20455;-71
2023/08/21 06:13:06;;;;;;;13.68;7.55;;;25.90;86.70;;;;;;5133729;28;20463;-71
2023/08/21 06:15:32;;;;;;;10.55;8.32;;;25.90;86.50;;;;;;5133237;28;20077;-74
2023/08/21 06:17:58;;;;;;;13.50;7.53;;;26.00;86.10;;;;;;5133520;28;20023;-71
2023/08/21 06:20:24;;;;;;;11.68;8.18;;;26.00;86.10;;;;;;5133989;27;20387;-71
2023/08/21 06:22:50;;;;;;;10.00;8.02;;;26.00;85.90;;;;;;5137319;27;20027;-71
2023/08/21 06:25:15;;;;;;;12.52;8.68;;;26.00;86.10;;;;;;5137477;27;20123;-71
2023/08/21 06:27:41;;;;;;;10.85;7.55;;;26.10;85.80;;;;;;5137133;27;20084;-71
2023/08/21 06:30:07;;;;;;;10.50;7.93;;;26.10;85.20;;;;;;5137451;27;20371;-71
2023/08/21 06:32:33;;;;;;;12.27;8.30;;;26.20;85.60;;;;;;5137593;27;20023;-71
2023/08/21 06:34:59;;;;;;;19.23;8.38;;;26.30;85.60;;;;;;5137620;27;20019;-71
2023/08/21 06:37:25;;;;;;;12.35;8.18;;;26.40;85.30;;;;;;5137147;27;20027;-70
2023/08/21 06:39:50;;;;;;;10.98;8.65;;;26.40;84.80;;;;;;5137014;27;20068;-71
2023/08/21 06:42:16;;;;;;;12.93;8.32;;;26.40;84.00;;;;;;5136828;27;20027;-71
2023/08/21 06:44:42;;;;;;;11.38;8.25;;;26.50;84.20;;;;;;5136382;27;20030;-71
2023/08/21 06:47:07;;;;;;;10.85;8.23;;;26.60;84.00;;;;;;5137090;27;20490;-71
2023/08/21 06:49:33;;;;;;;11.43;8.35;;;26.70;83.80;;;;;;5136776;27;20065;-71
2023/08/21 06:51:59;;;;;;;11.68;8.32;;;26.70;83.90;;;;;;5136415;27;20059;-71
2023/08/21 06:54:24;;;;;;;15.27;9.02;;;27.00;83.80;;;;;;5136800;27;20031;-71
2023/08/21 06:56:50;;;;;;;16.13;8.82;;;27.30;83.20;;;;;;5117892;27;20019;-71
2023/08/21 06:59:17;;;;;;;11.27;8.40;;;27.50;81.80;;;;;;5136082;27;20089;-71
2023/08/21 07:01:42;;;;;;;13.30;7.82;;;27.60;80.90;;;;;;5136528;27;20031;-71
2023/08/21 07:04:08;;;;;;;14.32;7.90;;;28.00;80.50;;;;;;5118149;27;20031;-69
2023/08/21 07:06:34;;;;;;;12.13;8.32;;;28.40;78.30;;;;;;5136632;27;20049;-71
2023/08/21 07:08:59;;;;;;;12.05;7.53;;;28.90;77.60;;;;;;5136634;27;20035;-70
2023/08/21 07:11:25;;;;;;;9.15;7.15;;;29.60;74.90;;;;;;5136594;27;20062;-71
2023/08/21 07:13:50;;;;;;;15.10;7.35;;;30.20;71.10;;;;;;5136226;27;20027;-71
2023/08/21 07:16:16;;;;;;;15.05;8.23;;;31.20;69.10;;;;;;5136382;27;20456;-71
2023/08/21 07:18:42;;;;;;;14.80;7.07;;;32.30;65.50;;;;;;5136071;27;20031;-71
2023/08/21 07:21:07;;;;;;;13.38;6.47;;;33.10;62.40;;;;;;5136797;27;20019;-72
2023/08/21 07:23:33;;;;;;;12.90;7.00;;;33.90;60.00;;;;;;5136268;27;20353;-71
2023/08/21 07:25:59;;;;;;;13.43;7.68;;;34.40;57.50;;;;;;5135725;27;20027;-71
2023/08/21 07:28:25;;;;;;;19.40;6.45;;;35.50;55.90;;;;;;5117802;27;20043;-71
2023/08/21 07:31:01;;;;;;;11.25;6.38;;;36.50;53.80;;;;;;5135850;27;20375;-71
2023/08/21 07:33:27;;;;;;;11.90;6.88;;;37.30;51.60;;;;;;5135197;27;20025;-71
2023/08/21 07:36:05;;;;;;;8.88;6.72;;;37.80;49.40;;;;;;5131877;27;20027;-71
2023/08/21 07:38:31;;;;;;;9.00;6.60;;;38.40;48.40;;;;;;5135915;27;20031;-71
2023/08/21 07:41:09;;;;;;;9.10;6.55;;;38.90;47.50;;;;;;5135341;27;20027;-71
2023/08/21 07:43:36;;;;;;;7.95;6.13;;;39.60;45.60;;;;;;5136010;27;20050;-72
2023/08/21 07:46:06;;;;;;;7.15;5.88;;;40.40;44.10;;;;;;5135125;27;20518;-71
2023/08/21 07:48:32;;;;;;;10.27;6.18;;;41.00;43.90;;;;;;5135669;27;20069;-72
2023/08/21 07:50:58;;;;;;;10.57;6.07;;;41.60;42.90;;;;;;5135710;27;20039;-71
2023/08/21 07:53:25;;;;;;;12.52;6.53;;;42.10;41.50;;;;;;5117312;27;20489;-71
2023/08/21 07:55:51;;;;;;;9.20;5.80;;;42.60;40.40;;;;;;5116893;27;20039;-71
2023/08/21 07:58:17;;;;;;;13.10;6.00;;;43.20;39.60;;;;;;5135917;27;20034;-71
2023/08/21 08:00:43;;;;;;;11.93;6.22;;;43.50;38.70;;;;;;5135297;27;20031;-71
2023/08/21 08:03:09;;;;;;;17.33;6.32;;;43.70;38.20;;;;;;5135648;27;20042;-71
2023/08/21 08:05:35;;;;;;;12.98;6.50;;;44.00;37.70;;;;;;5135514;27;20471;-71
2023/08/21 08:08:00;;;;;;;9.38;5.45;;;44.10;37.10;;;;;;5134849;27;20028;-71
2023/08/21 08:10:26;;;;;;;11.48;6.30;;;44.20;36.90;;;;;;5135198;27;20034;-71
2023/08/21 08:12:53;;;;;;;14.95;6.10;;;44.60;36.80;;;;;;5134661;27;20026;-71
2023/08/21 08:15:19;;;;;;;12.68;5.57;;;44.70;36.10;;;;;;5135385;27;20370;-71
2023/08/21 08:17:47;;;;;;;15.50;6.07;;;44.70;36.30;;;;;;5134581;27;20098;-72
2023/08/21 08:20:13;;;;;;;13.10;5.63;;;44.70;35.60;;;;;;5135210;27;20031;-71
2023/08/21 08:22:42;;;;;;;12.65;5.68;;;44.80;35.90;;;;;;5135022;27;20099;-71
2023/08/21 08:25:08;;;;;;;7.22;5.72;;;44.70;36.00;;;;;;5134871;27;20027;-71
2023/08/21 08:27:34;;;;;;;11.77;5.82;;;44.60;36.10;;;;;;5135050;27;20192;-71
2023/08/21 08:30:00;;;;;;;15.02;6.10;;;44.50;35.20;;;;;;5134649;27;20068;-70
2023/08/21 08:32:26;;;;;;;12.02;5.68;;;44.40;35.30;;;;;;5135024;27;20039;-70
2023/08/21 08:34:53;;;;;;;10.50;5.50;;;44.20;36.20;;;;;;5115975;27;20027;-71
2023/08/21 08:37:19;;;;;;;9.70;5.93;;;44.10;36.00;;;;;;5134089;27;20046;-71
2023/08/21 08:39:47;;;;;;;13.38;6.57;;;43.40;36.70;;;;;;5134391;27;20023;-72
2023/08/21 08:42:13;;;;;;;18.05;6.80;;;42.60;36.50;;;;;;5134691;27;20076;-71
2023/08/21 08:44:41;;;;;;;9.70;6.57;;;42.20;38.10;;;;;;5133760;27;20015;-71
2023/08/21 08:47:07;;;;;;;13.32;6.03;;;42.00;37.80;;;;;;5134334;27;20451;-71
2023/08/21 08:49:33;;;;;;;8.93;5.80;;;41.70;38.10;;;;;;5134437;27;20043;-71
2023/08/21 08:52:00;;;;;;;9.60;6.07;;;41.50;38.30;;;;;;5134048;27;20113;-71
2023/08/21 08:54:27;;;;;;;12.25;6.35;;;40.80;39.20;;;;;;5134828;27;20026;-71
2023/08/21 08:56:53;;;;;;;11.88;6.03;;;40.50;39.80;;;;;;5133983;27;20023;-71
2023/08/21 08:59:19;;;;;;;10.73;5.60;;;40.40;40.10;;;;;;5134577;27;20031;-71
2023/08/21 09:01:44;;;;;;;10.73;6.53;;;40.10;40.50;;;;;;5134125;27;20042;-74
2023/08/21 09:04:10;;;;;;;11.57;6.07;;;39.80;40.60;;;;;;5134280;27;20023;-71
2023/08/21 09:06:36;;;;;;;9.77;6.18;;;39.70;41.10;;;;;;5134358;27;20110;-71
2023/08/21 09:09:02;;;;;;;15.65;6.95;;;39.50;41.50;;;;;;5133560;27;20027;-70
2023/08/21 09:11:28;;;;;;;11.30;6.60;;;39.10;41.40;;;;;;5134336;27;20031;-70
2023/08/21 09:13:55;;;;;;;13.88;6.07;;;39.00;42.00;;;;;;5133942;27;20019;-72
2023/08/21 09:16:22;;;;;;;14.57;6.45;;;38.60;41.60;;;;;;5134316;27;20035;-71
2023/08/21 09:18:53;;;;;;;13.07;6.05;;;38.40;42.20;;;;;;5133958;27;20106;-72
2023/08/21 09:21:20;;;;;;;11.48;6.30;;;38.30;43.20;;;;;;5134328;27;20031;-72
2023/08/21 09:23:47;;;;;;;11.35;6.00;;;38.20;43.20;;;;;;5133926;27;20111;-74
2023/08/21 09:26:22;;;;;;;11.27;5.88;;;37.90;43.50;;;;;;5134089;27;20452;-72
2023/08/21 09:28:49;;;;;;;8.55;5.97;;;37.80;43.70;;;;;;5133627;27;20076;-71
2023/08/21 09:31:15;;;;;;;9.15;6.40;;;37.60;43.50;;;;;;5133776;27;20487;-71
2023/08/21 09:33:41;;;;;;;7.30;5.93;;;37.50;44.10;;;;;;5134026;27;20055;-71
2023/08/21 09:36:09;;;;;;;9.20;6.00;;;37.40;44.70;;;;;;5132312;27;20467;-74
2023/08/21 09:38:37;;;;;;;12.65;5.97;;;37.30;44.40;;;;;;5130679;27;20062;-71
2023/08/21 09:41:03;;;;;;;13.07;7.15;;;37.40;45.90;;;;;;5133285;27;20026;-71
2023/08/21 09:43:29;;;;;;;12.18;6.30;;;37.40;45.60;;;;;;5133674;27;20023;-71
2023/08/21 09:45:56;;;;;;;12.48;5.40;;;37.40;45.20;;;;;;5133623;27;20035;-71
2023/08/21 09:48:29;;;;;;;10.98;5.93;;;37.50;45.70;;;;;;5133779;27;20042;-71
2023/08/21 09:50:55;;;;;;;12.00;5.80;;;37.40;44.10;;;;;;5133289;27;20491;-71
2023/08/21 09:53:22;;;;;;;6.18;5.53;;;37.30;43.80;;;;;;5133848;27;20024;-71
2023/08/21 09:55:52;;;;;;;9.18;6.15;;;37.30;44.00;;;;;;5133111;27;20088;-73
2023/08/21 09:58:19;;;;;;;9.05;5.35;;;37.10;43.90;;;;;;5133271;27;20414;-70
2023/08/21 10:00:48;;;;;;;12.63;6.93;;;36.90;44.90;;;;;;5133480;27;20032;-70
2023/08/21 10:03:17;;;;;;;11.25;6.13;;;36.80;44.00;;;;;;5133309;28;20029;-71
2023/08/21 10:05:43;;;;;;;7.00;5.80;;;36.40;44.40;;;;;;5133190;28;20498;-71
2023/08/21 10:08:09;;;;;;;10.57;6.20;;;36.40;45.20;;;;;;5132905;28;20031;-71
2023/08/21 10:10:38;;;;;;;9.70;5.85;;;36.40;44.90;;;;;;5133182;28;20027;-70
2023/08/21 10:13:04;;;;;;;13.27;5.30;;;36.40;44.60;;;;;;5132976;28;20063;-72
2023/08/21 10:15:33;;;;;;;8.88;6.22;;;36.40;44.40;;;;;;5133409;28;20067;-71
2023/08/21 10:18:21;;;;;;;6.45;5.50;;;36.30;44.50;;;;;;5133125;28;20363;-71
2023/08/21 10:20:47;;;;;;;14.50;6.63;;;36.10;44.20;;;;;;5133091;28;20375;-71
2023/08/21 10:23:28;;;;;;;14.00;5.95;;;35.90;45.50;;;;;;5133055;28;20027;-71
2023/08/21 10:25:58;;;;;;;12.82;6.28;;;35.90;45.30;;;;;;5132861;28;20071;-71
2023/08/21 10:28:24;;;;;;;10.98;6.65;;;35.90;45.10;;;;;;5115013;28;20031;-70
2023/08/21 10:30:49;;;;;;;10.80;6.15;;;35.90;44.70;;;;;;5133206;28;20110;-71
2023/08/21 10:33:15;;;;;;;7.72;6.22;;;35.70;45.40;;;;;;5132888;28;20023;-70
2023/08/21 10:35:41;;;;;;;8.15;6.07;;;35.80;46.20;;;;;;5133119;28;20072;-71
2023/08/21 10:38:11;;;;;;;8.65;5.13;;;35.90;45.70;;;;;;5132564;28;20030;-71
2023/08/21 10:40:41;;;;;;;10.55;5.80;;;36.00;45.50;;;;;;5133051;28;20034;-70
2023/08/21 10:43:45;;;;;;;8.25;5.80;;;36.10;45.30;;;;;;5132654;28;20122;-71
2023/08/21 10:46:12;;;;;;;6.85;5.53;;;36.20;44.00;;;;;;5132166;28;20070;-70
2023/08/21 10:48:39;;;;;;;9.10;5.15;;;36.00;43.60;;;;;;5133115;28;20534;-72
2023/08/21 10:51:07;;;;;;;9.73;5.80;;;35.80;43.90;;;;;;5132782;27;20444;-72
2023/08/21 10:53:33;;;;;;;9.77;5.20;;;35.80;43.80;;;;;;5133237;28;20448;-71
2023/08/21 10:56:05;;;;;;;5.97;5.13;;;35.80;43.70;;;;;;5132658;28;20063;-71
2023/08/21 10:58:40;;;;;;;9.45;5.15;;;35.80;43.20;;;;;;5133029;28;20023;-71
2023/08/21 11:01:06;;;;;;;9.35;5.22;;;36.00;44.70;;;;;;5132631;28;20164;-71
2023/08/21 11:03:32;;;;;;;6.53;4.75;;;36.00;44.30;;;;;;5132728;28;20477;-71
2023/08/21 11:06:05;;;;;;;5.90;4.25;;;36.00;42.40;;;;;;5114152;28;20036;-71
2023/08/21 11:08:35;;;;;;;6.25;5.13;;;35.90;42.10;;;;;;5135447;27;20451;-71
2023/08/21 11:11:03;;;;;;;7.82;4.50;;;36.00;43.60;;;;;;5136149;27;20027;-70
2023/08/21 11:13:29;;;;;;;8.52;5.18;;;36.10;43.40;;;;;;5136272;27;20027;-71
2023/08/21 11:15:59;;;;;;;8.07;5.30;;;36.10;42.40;;;;;;5135993;27;20405;-72
2023/08/21 11:18:38;;;;;;;7.13;4.68;;;36.10;43.10;;;;;;5136417;27;20031;-70
2023/08/21 11:21:09;;;;;;;10.55;5.15;;;36.20;43.90;;;;;;5136200;27;20030;-70
2023/08/21 11:23:37;;;;;;;5.07;4.57;;;36.10;41.40;;;;;;5118110;27;20060;-70
2023/08/21 11:26:03;;;;;;;12.00;4.90;;;36.10;41.90;;;;;;5135815;27;20028;-71
2023/08/21 11:28:30;;;;;;;9.00;4.63;;;36.20;42.40;;;;;;5136356;27;20051;-71
2023/08/21 11:30:57;;;;;;;7.85;4.68;;;36.10;42.70;;;;;;5135816;27;20027;-73
2023/08/21 11:33:23;;;;;;;7.78;4.13;;;36.20;41.50;;;;;;5136472;27;20092;-72
2023/08/21 11:35:49;;;;;;;9.73;4.00;;;36.20;40.80;;;;;;5135834;27;20035;-72
2023/08/21 11:38:17;;;;;;;6.10;4.95;;;36.30;41.10;;;;;;5135690;27;20027;-72
2023/08/21 11:40:54;;;;;;;4.63;3.80;;;36.30;40.80;;;;;;5136248;27;20023;-72
2023/08/21 11:43:20;;;;;;;5.43;4.10;;;36.30;39.70;;;;;;5133087;27;20523;-72
2023/08/21 11:45:47;;;;;;;7.75;4.78;;;36.40;40.70;;;;;;5134988;27;20035;-71
2023/08/21 11:48:12;;;;;;;9.63;4.68;;;36.40;41.00;;;;;;5135477;27;20367;-72
2023/08/21 11:50:39;;;;;;;6.38;4.65;;;36.30;41.10;;;;;;5135917;27;20043;-72
2023/08/21 11:53:10;;;;;;;7.53;4.65;;;36.30;41.60;;;;;;5117188;27;20041;-72
2023/08/21 11:55:36;;;;;;;6.55;4.75;;;36.30;40.50;;;;;;5135857;27;20509;-72
2023/08/21 11:58:04;;;;;;;6.00;4.05;;;36.30;40.20;;;;;;5135138;27;20027;-72
2023/08/21 12:00:30;;;;;;;8.13;4.47;;;36.30;41.00;;;;;;5135677;27;20039;-72
2023/08/21 12:03:01;;;;;;;6.25;4.50;;;36.40;41.80;;;;;;5135624;27;20026;-71
2023/08/21 12:05:27;;;;;;;5.03;4.30;;;36.40;41.30;;;;;;5135577;27;20066;-71
2023/08/21 12:07:54;;;;;;;7.30;4.88;;;36.50;41.90;;;;;;5117078;27;20023;-70
2023/08/21 12:10:28;;;;;;;7.78;4.57;;;36.50;42.10;;;;;;5134946;27;20047;-71
2023/08/21 12:12:54;;;;;;;6.05;4.72;;;36.50;41.90;;;;;;5135445;27;20368;-70
2023/08/21 12:15:20;;;;;;;11.57;4.72;;;36.50;41.70;;;;;;5134900;27;20083;-70
2023/08/21 12:17:46;;;;;;;7.65;4.90;;;36.30;41.80;;;;;;5135112;27;20019;-70
2023/08/21 12:20:12;;;;;;;8.57;4.40;;;36.30;41.80;;;;;;5134976;27;20026;-70
2023/08/21 12:22:38;;;;;;;5.20;4.63;;;36.10;41.80;;;;;;5135066;27;20050;-71
2023/08/21 12:25:05;;;;;;;6.35;4.85;;;36.00;41.40;;;;;;5134677;27;20089;-71
2023/08/21 12:27:31;;;;;;;8.80;4.95;;;35.90;41.70;;;;;;5134777;27;20031;-71
2023/08/21 12:29:56;;;;;;;9.93;4.78;;;35.80;41.80;;;;;;5135095;27;20063;-71
2023/08/21 12:32:22;;;;;;;6.53;4.43;;;35.70;42.20;;;;;;5134398;27;20023;-71
2023/08/21 12:34:48;;;;;;;6.20;4.82;;;35.60;42.00;;;;;;5135259;27;20057;-71
2023/08/21 12:37:13;;;;;;;12.63;4.90;;;35.50;41.50;;;;;;5134083;27;20027;-71
2023/08/21 12:39:39;;;;;;;10.40;5.18;;;35.40;41.70;;;;;;5134509;27;20379;-71
2023/08/21 12:42:05;;;;;;;9.35;4.55;;;35.30;42.80;;;;;;5134123;27;20404;-72